createdAt,value
2022-12-15T00:02:19.374Z,7.90
2022-12-15T00:05:05.503Z,5.85
2022-12-15T00:07:52.086Z,7.38
2022-12-15T00:10:38.161Z,6.15
2022-12-15T00:13:30.676Z,6.93
2022-12-15T00:21:49.232Z,6.45
2022-12-15T00:24:35.090Z,5.93
2022-12-15T00:27:20.980Z,7.00
2022-12-15T00:30:06.930Z,5.95
2022-12-15T00:32:52.693Z,6.90
2022-12-15T00:35:38.855Z,5.78
2022-12-15T00:38:28.345Z,6.63
2022-12-15T00:40:59.643Z,6.93
2022-12-15T00:43:31.017Z,5.82
2022-12-15T00:46:17.897Z,7.35
2022-12-15T00:48:45.354Z,6.40
2022-12-15T00:51:12.700Z,6.35
2022-12-15T00:53:59.085Z,5.93
2022-12-15T00:56:45.085Z,7.10
2022-12-15T00:59:31.562Z,6.25
2022-12-15T01:05:03.801Z,6.75
2022-12-15T01:07:50.146Z,5.47
2022-12-15T01:13:22.720Z,6.03
2022-12-15T01:16:08.632Z,6.45
2022-12-15T01:18:54.570Z,6.38
2022-12-15T01:21:24.639Z,6.35
2022-12-15T01:23:52.378Z,6.32
2022-12-15T01:26:19.519Z,6.85
2022-12-15T01:28:46.656Z,6.88
2022-12-15T01:31:14.126Z,6.80
2022-12-15T01:33:43.523Z,6.07
2022-12-15T01:36:11.051Z,6.35
2022-12-15T01:38:38.640Z,7.63
2022-12-15T01:41:07.084Z,6.10
2022-12-15T01:43:35.986Z,6.90
2022-12-15T01:46:07.548Z,6.28
2022-12-15T01:48:41.536Z,6.80
2022-12-15T01:51:26.012Z,6.97
2022-12-15T01:54:01.735Z,6.63
2022-12-15T01:56:33.966Z,7.07
2022-12-15T01:59:05.506Z,5.85
2022-12-15T02:01:32.776Z,6.25
2022-12-15T02:03:59.990Z,6.72
2022-12-15T02:06:27.439Z,5.55
2022-12-15T02:08:55.620Z,6.13
2022-12-15T02:11:28.642Z,6.03
2022-12-15T02:14:06.310Z,6.03
2022-12-15T02:16:51.770Z,6.60
2022-12-15T02:19:37.886Z,6.40
2022-12-15T02:22:17.431Z,5.75
2022-12-15T02:24:56.764Z,6.13
2022-12-15T02:27:35.826Z,5.53
2022-12-15T02:30:09.843Z,5.88
2022-12-15T02:33:22.533Z,6.30
2022-12-15T02:36:02.286Z,7.43
2022-12-15T02:38:41.511Z,6.68
2022-12-15T02:41:36.153Z,6.43
2022-12-15T02:44:07.044Z,5.80
2022-12-15T02:46:41.558Z,5.88
2022-12-15T02:49:12.373Z,7.20
2022-12-15T02:52:03.158Z,6.57
2022-12-15T02:54:42.116Z,5.90
2022-12-15T02:57:12.263Z,6.00
2022-12-15T02:59:42.947Z,5.53
2022-12-15T03:02:11.569Z,6.40
2022-12-15T03:04:39.110Z,7.13
2022-12-15T03:07:09.356Z,5.65
2022-12-15T03:09:36.863Z,6.45
2022-12-15T03:12:04.120Z,6.57
2022-12-15T03:14:31.297Z,7.18
2022-12-15T03:16:58.500Z,6.50
2022-12-15T03:21:53.419Z,6.22
2022-12-15T03:24:20.590Z,5.55
2022-12-15T03:26:50.194Z,6.07
2022-12-15T03:29:17.813Z,6.00
2022-12-15T03:31:45.084Z,5.97
2022-12-15T03:34:12.305Z,5.82
2022-12-15T03:36:39.515Z,5.63
2022-12-15T03:39:07.091Z,5.45
2022-12-15T03:41:34.187Z,6.20
2022-12-15T03:44:01.319Z,6.50
2022-12-15T03:46:28.660Z,6.38
2022-12-15T03:51:22.921Z,6.07
2022-12-15T03:53:50.071Z,5.97
2022-12-15T03:56:17.400Z,6.50
2022-12-15T04:01:11.754Z,5.00
2022-12-15T04:06:06.131Z,4.95
2022-12-15T04:08:33.300Z,7.10
2022-12-15T04:11:00.417Z,5.72
2022-12-15T04:13:27.665Z,6.53
2022-12-15T04:18:21.939Z,6.55
2022-12-15T04:20:50.350Z,6.55
2022-12-15T04:23:17.653Z,6.13
2022-12-15T04:26:03.467Z,6.07
2022-12-15T04:28:49.408Z,6.80
2022-12-15T04:31:44.378Z,6.72
2022-12-15T04:34:32.329Z,6.30
2022-12-15T04:37:18.234Z,6.03
2022-12-15T04:40:05.435Z,6.32
2022-12-15T04:42:52.185Z,6.57
2022-12-15T04:45:39.436Z,5.15
2022-12-15T04:48:25.449Z,6.65
2022-12-15T04:51:11.487Z,6.15
2022-12-15T04:53:57.273Z,5.70
2022-12-15T04:56:43.354Z,6.40
2022-12-15T04:59:29.278Z,5.75
2022-12-15T05:02:15.319Z,6.30
2022-12-15T05:05:01.216Z,6.03
2022-12-15T05:07:47.160Z,6.45
2022-12-15T05:10:33.299Z,6.63
2022-12-15T05:13:25.582Z,6.75
2022-12-15T05:16:11.797Z,7.55
2022-12-15T05:18:57.713Z,5.75
2022-12-15T05:21:43.798Z,5.53
2022-12-15T05:24:29.601Z,6.03
2022-12-15T05:27:15.756Z,5.93
2022-12-15T05:30:01.756Z,5.57
2022-12-15T05:32:29.438Z,6.20
2022-12-15T05:34:56.581Z,5.38
2022-12-15T05:37:23.704Z,5.38
2022-12-15T05:39:50.842Z,6.15
2022-12-15T05:42:18.034Z,6.97
2022-12-15T05:44:45.213Z,6.40
2022-12-15T05:47:12.564Z,5.78
2022-12-15T05:52:07.258Z,6.22
2022-12-15T05:54:34.353Z,5.70
2022-12-15T05:57:01.479Z,5.45
2022-12-15T05:59:28.642Z,6.97
2022-12-15T06:01:55.870Z,7.40
2022-12-15T06:06:50.289Z,6.15
2022-12-15T06:09:17.406Z,5.53
2022-12-15T06:11:44.778Z,5.60
2022-12-15T06:16:49.800Z,5.97
2022-12-15T06:19:18.424Z,6.97
2022-12-15T06:21:45.496Z,6.60
2022-12-15T06:24:12.567Z,6.70
2022-12-15T06:26:40.841Z,6.35
2022-12-15T06:29:09.449Z,6.95
2022-12-15T06:31:37.390Z,7.90
2022-12-15T06:34:09.083Z,7.60
2022-12-15T06:36:36.919Z,6.28
2022-12-15T06:39:05.332Z,7.85
2022-12-15T06:41:32.903Z,6.95
2022-12-15T06:44:00.565Z,7.05
2022-12-15T06:46:29.101Z,6.68
2022-12-15T06:48:56.573Z,6.72
2022-12-15T06:53:53.710Z,6.43
2022-12-15T06:56:27.237Z,6.32
2022-12-15T06:58:59.979Z,7.45
2022-12-15T07:01:27.505Z,6.82
2022-12-15T07:03:55.599Z,5.90
2022-12-15T07:06:23.301Z,6.47
2022-12-15T07:08:56.455Z,6.55
2022-12-15T07:11:23.781Z,6.28
2022-12-15T07:13:51.569Z,6.13
2022-12-15T07:16:19.296Z,5.65
2022-12-15T07:18:46.527Z,6.60
2022-12-15T07:21:13.741Z,6.63
2022-12-15T07:23:54.273Z,6.35
2022-12-15T07:26:23.481Z,6.30
2022-12-15T07:28:50.617Z,7.40
2022-12-15T07:31:17.948Z,6.80
2022-12-15T07:33:45.312Z,5.70
2022-12-15T07:36:13.086Z,7.40
2022-12-15T07:38:40.181Z,6.43
2022-12-15T07:41:08.410Z,8.00
2022-12-15T07:43:36.770Z,7.47
2022-12-15T07:46:04.940Z,6.47
2022-12-15T07:48:32.821Z,7.35
2022-12-15T07:51:08.282Z,7.00
2022-12-15T07:53:37.391Z,7.45
2022-12-15T07:56:07.955Z,6.50
2022-12-15T07:58:35.979Z,6.75
2022-12-15T08:01:04.117Z,7.28
2022-12-15T08:03:31.983Z,7.55
2022-12-15T08:06:03.967Z,7.40
2022-12-15T08:08:32.301Z,7.28
2022-12-15T08:10:59.762Z,7.63
2022-12-15T08:14:00.709Z,7.45
2022-12-15T08:16:14.100Z,7.40
2022-12-15T08:21:09.151Z,5.90
2022-12-15T08:23:36.950Z,7.30
2022-12-15T08:26:05.792Z,7.88
2022-12-15T08:28:33.576Z,6.85
2022-12-15T08:31:04.916Z,7.38
2022-12-15T08:33:33.035Z,7.88
2022-12-15T08:36:02.797Z,7.80
2022-12-15T08:38:30.760Z,7.90
2022-12-15T08:40:57.865Z,10.02
2022-12-15T08:43:25.185Z,7.95
2022-12-15T08:48:19.433Z,7.82
2022-12-15T08:50:46.605Z,7.88
2022-12-15T08:53:30.828Z,7.90
2022-12-15T08:56:09.471Z,7.75
2022-12-15T08:58:36.619Z,6.63
2022-12-15T09:01:08.289Z,7.80
2022-12-15T09:03:36.169Z,9.07
2022-12-15T09:06:04.715Z,8.60
2022-12-15T09:08:31.972Z,8.05
2022-12-15T09:13:26.737Z,7.53
2022-12-15T09:16:10.501Z,6.82
2022-12-15T09:18:38.124Z,7.43
2022-12-15T09:23:34.985Z,8.40
2022-12-15T09:26:14.213Z,8.30
2022-12-15T09:28:42.814Z,8.30
2022-12-15T09:31:19.122Z,8.15
2022-12-15T09:33:46.384Z,8.65
2022-12-15T09:38:41.100Z,7.72
2022-12-15T09:41:17.136Z,6.82
2022-12-15T09:43:58.612Z,8.45
2022-12-15T09:47:05.657Z,8.05
2022-12-15T09:49:55.943Z,8.57
2022-12-15T09:52:25.803Z,9.25
2022-12-15T09:54:53.102Z,8.43
2022-12-15T09:57:44.077Z,8.60
2022-12-15T10:00:21.099Z,9.15
2022-12-15T10:02:49.783Z,8.27
2022-12-15T10:05:50.054Z,7.60
2022-12-15T10:08:16.704Z,8.77
2022-12-15T10:10:48.084Z,8.20
2022-12-15T10:13:23.439Z,8.40
2022-12-15T10:16:03.043Z,7.88
2022-12-15T10:18:36.476Z,7.65
2022-12-15T10:21:03.693Z,8.20
2022-12-15T10:26:16.498Z,8.25
2022-12-15T10:28:43.569Z,8.85
2022-12-15T10:31:16.851Z,8.82
2022-12-15T10:33:48.732Z,8.15
2022-12-15T10:36:17.420Z,9.00
2022-12-15T10:38:50.392Z,9.85
2022-12-15T10:41:22.331Z,8.60
2022-12-15T10:43:50.948Z,10.68
2022-12-15T10:46:19.989Z,9.57
2022-12-15T10:48:49.191Z,10.27
2022-12-15T10:51:18.827Z,9.40
2022-12-15T10:53:53.322Z,9.88
2022-12-15T10:56:28.846Z,9.80
2022-12-15T10:59:01.281Z,9.30
2022-12-15T11:01:30.001Z,9.77
2022-12-15T11:03:57.368Z,9.55
2022-12-15T11:06:29.484Z,9.77
2022-12-15T11:08:57.906Z,9.18
2022-12-15T11:11:46.547Z,10.00
2022-12-15T11:14:16.556Z,9.63
2022-12-15T11:16:47.102Z,9.23
2022-12-15T11:19:20.532Z,9.30
2022-12-15T11:21:50.441Z,9.00
2022-12-15T11:24:21.700Z,9.18
2022-12-15T11:26:49.162Z,9.27
2022-12-15T11:29:34.301Z,9.23
2022-12-15T11:32:07.027Z,8.70
2022-12-15T11:34:39.725Z,9.45
2022-12-15T11:37:09.807Z,9.63
2022-12-15T11:39:42.937Z,10.23
2022-12-15T11:42:19.205Z,9.82
2022-12-15T11:44:49.332Z,10.13
2022-12-15T11:47:21.769Z,9.25
2022-12-15T11:49:54.739Z,9.60
2022-12-15T11:52:40.348Z,9.48
2022-12-15T11:55:37.565Z,9.45
2022-12-15T11:58:23.495Z,11.27
2022-12-15T12:00:55.021Z,11.82
2022-12-15T12:03:42.269Z,11.15
2022-12-15T12:06:19.587Z,13.02
2022-12-15T12:08:51.637Z,11.52
2022-12-15T12:11:21.810Z,10.75
2022-12-15T12:14:25.668Z,10.23
2022-12-15T12:17:14.309Z,9.82
2022-12-15T12:19:43.805Z,9.95
2022-12-15T12:22:25.397Z,10.68
2022-12-15T12:24:57.352Z,11.07
2022-12-15T12:27:24.428Z,10.48
2022-12-15T12:32:40.441Z,9.57
2022-12-15T12:35:30.367Z,9.95
2022-12-15T12:38:03.979Z,9.57
2022-12-15T12:40:31.637Z,9.57
2022-12-15T12:42:59.406Z,9.85
2022-12-15T12:45:30.433Z,9.48
2022-12-15T12:47:59.995Z,8.90
2022-12-15T12:50:28.795Z,10.32
2022-12-15T12:52:57.987Z,9.70
2022-12-15T12:55:26.101Z,10.65
2022-12-15T12:57:53.846Z,11.75
2022-12-15T13:00:21.108Z,10.77
2022-12-15T13:03:13.697Z,10.63
2022-12-15T13:08:08.701Z,10.88
2022-12-15T13:10:39.883Z,12.07
2022-12-15T13:13:35.403Z,11.18
2022-12-15T13:16:24.263Z,12.23
2022-12-15T13:19:02.915Z,11.25
2022-12-15T13:21:48.833Z,11.75
2022-12-15T13:24:23.418Z,12.40
2022-12-15T13:26:50.668Z,11.57
2022-12-15T13:29:20.490Z,11.50
2022-12-15T13:31:49.131Z,11.52
2022-12-15T13:34:21.352Z,10.98
2022-12-15T13:36:54.701Z,10.75
2022-12-15T13:39:28.579Z,11.32
2022-12-15T13:44:46.735Z,10.32
2022-12-15T13:47:17.609Z,11.02
2022-12-15T13:55:35.667Z,12.18
2022-12-15T13:58:08.109Z,12.02
2022-12-15T14:00:36.721Z,12.40
2022-12-15T14:03:06.702Z,13.35
2022-12-15T14:05:34.125Z,12.68
2022-12-15T14:08:03.406Z,11.82
2022-12-15T14:10:39.320Z,12.02
2022-12-15T14:13:16.136Z,11.82
2022-12-15T14:15:46.517Z,12.73
2022-12-15T14:18:26.667Z,13.73
2022-12-15T14:20:54.125Z,12.32
2022-12-15T14:23:31.707Z,12.57
2022-12-15T14:26:06.611Z,11.77
2022-12-15T14:28:35.243Z,13.25
2022-12-15T14:31:13.181Z,12.55
2022-12-15T14:33:42.716Z,11.88
2022-12-15T14:36:12.193Z,12.10
2022-12-15T14:38:39.364Z,11.75
2022-12-15T14:41:06.877Z,13.10
2022-12-15T14:43:37.286Z,12.02
2022-12-15T14:46:12.615Z,14.82
2022-12-15T14:48:43.428Z,13.85
2022-12-15T14:51:14.398Z,13.40
2022-12-15T14:53:42.476Z,13.57
2022-12-15T14:56:13.917Z,12.15
2022-12-15T14:58:42.180Z,13.65
2022-12-15T15:01:30.484Z,13.35
2022-12-15T15:03:10.165Z,11.57
2022-12-15T15:04:01.718Z,13.07
2022-12-15T15:06:36.461Z,14.35
2022-12-15T15:09:19.870Z,13.45
2022-12-15T15:11:48.789Z,13.00
2022-12-15T15:14:23.243Z,13.05
2022-12-15T15:17:09.173Z,12.90
2022-12-15T15:19:39.521Z,14.38
2022-12-15T15:22:12.659Z,12.93
2022-12-15T15:24:39.865Z,14.18
2022-12-15T15:27:27.108Z,14.43
2022-12-15T15:30:06.952Z,13.40
2022-12-15T15:32:49.747Z,12.98
2022-12-15T15:35:16.929Z,13.75
2022-12-15T15:37:44.032Z,13.93
2022-12-15T15:42:39.259Z,13.40
2022-12-15T15:47:37.470Z,14.18
2022-12-15T15:52:31.978Z,12.30
2022-12-15T15:54:59.640Z,14.55
2022-12-15T15:57:26.782Z,14.07
2022-12-15T16:02:20.959Z,14.18
2022-12-15T16:04:48.212Z,15.75
2022-12-15T16:07:25.255Z,14.70
2022-12-15T16:09:53.448Z,14.85
2022-12-15T16:12:28.621Z,14.98
2022-12-15T16:14:55.939Z,13.30
2022-12-15T16:17:23.563Z,14.23
2022-12-15T16:19:50.689Z,14.13
2022-12-15T16:24:44.900Z,14.30
2022-12-15T16:27:13.175Z,15.35
2022-12-15T16:29:40.356Z,15.38
2022-12-15T16:34:36.536Z,14.60
2022-12-15T16:37:04.494Z,15.10
2022-12-15T16:39:33.015Z,14.20
2022-12-15T16:42:00.322Z,16.52
2022-12-15T16:44:29.070Z,15.07
2022-12-15T16:46:57.040Z,15.52
2022-12-15T16:49:24.718Z,16.38
2022-12-15T16:51:53.568Z,15.00
2022-12-15T16:54:22.822Z,15.13
2022-12-15T16:56:50.000Z,16.63
2022-12-15T17:02:02.757Z,15.80
2022-12-15T17:04:30.143Z,14.65
2022-12-15T17:06:57.397Z,15.75
2022-12-15T17:09:25.948Z,16.95
2022-12-15T17:11:53.273Z,16.85
2022-12-15T17:14:20.432Z,16.30
2022-12-15T17:19:20.665Z,13.57
2022-12-15T17:21:51.965Z,15.45
2022-12-15T17:24:20.177Z,16.20
2022-12-15T17:26:47.525Z,15.73
2022-12-15T17:29:16.732Z,14.98
2022-12-15T17:31:43.962Z,16.05
2022-12-15T17:34:30.656Z,15.68
2022-12-15T17:37:02.224Z,16.55
2022-12-15T17:39:29.451Z,16.52
2022-12-15T17:42:01.511Z,15.18
2022-12-15T17:44:36.720Z,15.77
2022-12-15T17:47:06.152Z,14.18
2022-12-15T17:49:36.583Z,15.35
2022-12-15T17:52:07.625Z,16.13
2022-12-15T17:54:35.567Z,16.30
2022-12-15T17:57:02.687Z,17.42
2022-12-15T17:59:31.633Z,16.63
2022-12-15T18:01:58.902Z,16.92
2022-12-15T18:04:26.110Z,16.92
2022-12-15T18:09:28.489Z,15.82
2022-12-15T18:11:55.579Z,15.88
2022-12-15T18:14:22.828Z,15.68
2022-12-15T18:16:50.177Z,16.27
2022-12-15T18:19:17.312Z,16.50
2022-12-15T18:24:21.374Z,15.85
2022-12-15T18:26:48.840Z,16.25
2022-12-15T18:29:17.937Z,16.77
2022-12-15T18:31:46.814Z,16.50
2022-12-15T18:34:15.011Z,16.98
2022-12-15T18:36:42.874Z,16.85
2022-12-15T18:39:30.263Z,16.98
2022-12-15T18:41:57.718Z,16.58
2022-12-15T18:44:25.776Z,17.58
2022-12-15T18:46:54.942Z,17.77
2022-12-15T18:49:22.531Z,18.42
2022-12-15T18:51:49.756Z,16.55
2022-12-15T18:54:21.844Z,16.92
2022-12-15T18:56:49.174Z,17.23
2022-12-15T18:59:17.072Z,16.52
2022-12-15T19:01:45.494Z,16.73
2022-12-15T19:04:12.883Z,15.35
2022-12-15T19:09:15.934Z,16.45
2022-12-15T19:12:04.330Z,15.88
2022-12-15T19:14:40.441Z,16.05
2022-12-15T19:17:29.004Z,16.25
2022-12-15T19:20:14.678Z,16.50
2022-12-15T19:22:41.984Z,17.02
2022-12-15T19:25:11.467Z,16.20
2022-12-15T19:27:38.624Z,15.20
2022-12-15T19:32:33.294Z,17.08
2022-12-15T19:37:30.239Z,15.85
2022-12-15T19:40:01.326Z,16.92
2022-12-15T19:42:30.720Z,17.33
2022-12-15T19:44:58.139Z,16.48
2022-12-15T19:47:25.504Z,17.15
2022-12-15T19:49:52.793Z,17.35
2022-12-15T19:52:22.264Z,16.23
2022-12-15T19:54:50.411Z,16.02
2022-12-15T19:57:18.382Z,16.90
2022-12-15T19:59:45.826Z,16.70
2022-12-15T20:02:16.693Z,15.90
2022-12-15T20:04:44.190Z,15.05
2022-12-15T20:07:26.089Z,16.20
2022-12-15T20:09:53.324Z,15.30
2022-12-15T20:14:47.384Z,15.82
2022-12-15T20:19:42.306Z,14.60
2022-12-15T20:22:16.944Z,14.80
2022-12-15T20:24:44.591Z,15.60
2022-12-15T20:27:15.986Z,16.88
2022-12-15T20:29:43.156Z,16.90
2022-12-15T20:34:41.476Z,15.10
2022-12-15T20:37:43.990Z,14.63
2022-12-15T20:40:18.608Z,14.85
2022-12-15T20:42:45.889Z,16.00
2022-12-15T20:45:17.087Z,16.52
2022-12-15T20:47:45.345Z,15.43
2022-12-15T20:50:42.721Z,15.52
2022-12-15T20:53:20.835Z,16.65
2022-12-15T20:55:48.513Z,15.98
2022-12-15T20:58:16.488Z,16.65
2022-12-15T21:00:43.733Z,16.25
2022-12-15T21:03:21.847Z,16.90
2022-12-15T21:05:49.282Z,16.63
2022-12-15T21:08:18.197Z,17.73
2022-12-15T21:10:46.037Z,16.25
2022-12-15T21:13:15.935Z,17.00
2022-12-15T21:15:43.181Z,16.85
2022-12-15T21:21:01.154Z,15.43
2022-12-15T21:23:32.154Z,16.77
2022-12-15T21:25:59.816Z,16.05
2022-12-15T21:28:26.958Z,16.23
2022-12-15T21:33:20.903Z,15.00
2022-12-15T21:38:25.845Z,14.40
2022-12-15T21:40:59.149Z,15.10
2022-12-15T21:43:27.674Z,16.33
2022-12-15T21:45:54.839Z,17.20
2022-12-15T21:48:40.683Z,15.30
2022-12-15T21:51:12.360Z,15.48
2022-12-15T21:53:39.538Z,16.13
2022-12-15T21:58:33.924Z,15.75
2022-12-15T22:01:01.355Z,16.02
2022-12-15T22:03:28.575Z,15.68
2022-12-15T22:08:23.047Z,14.85
2022-12-15T22:10:52.064Z,16.13
2022-12-15T22:13:23.426Z,14.75
2022-12-15T22:15:51.649Z,15.77
2022-12-15T22:18:22.551Z,16.35
2022-12-15T22:20:50.609Z,15.80
2022-12-15T22:23:21.123Z,14.32
2022-12-15T22:25:49.936Z,15.38
2022-12-15T22:28:27.856Z,15.48
2022-12-15T22:30:56.038Z,16.88
2022-12-15T22:33:24.651Z,15.50
2022-12-15T22:35:52.804Z,16.77
2022-12-15T22:38:22.923Z,15.35
2022-12-15T22:40:51.628Z,16.00
2022-12-15T22:43:24.016Z,16.20
2022-12-15T22:45:52.460Z,16.52
2022-12-15T22:48:20.707Z,15.68
2022-12-15T22:50:48.070Z,16.02
2022-12-15T22:53:19.400Z,15.85
2022-12-15T22:55:47.467Z,16.58
2022-12-15T22:58:18.507Z,17.35
2022-12-15T23:00:45.610Z,17.02
2022-12-15T23:03:13.448Z,17.25
2022-12-15T23:05:41.863Z,18.35
2022-12-15T23:08:09.342Z,17.48
2022-12-15T23:10:55.108Z,15.70
2022-12-15T23:13:22.327Z,16.88
2022-12-15T23:16:08.997Z,17.20
2022-12-15T23:18:36.333Z,16.45
2022-12-15T23:21:03.614Z,17.35
2022-12-15T23:23:32.481Z,15.90
2022-12-15T23:26:00.109Z,16.10
2022-12-15T23:30:55.342Z,15.93
2022-12-15T23:33:23.049Z,16.70
2022-12-15T23:35:50.172Z,14.60
2022-12-15T23:38:17.824Z,16.50
2022-12-15T23:40:49.568Z,17.42
2022-12-15T23:43:20.028Z,16.20
2022-12-15T23:45:47.704Z,16.92
2022-12-15T23:48:15.019Z,16.70
2022-12-15T23:50:42.221Z,17.00
2022-12-15T23:55:36.576Z,16.90
